Terminal Aerodrome Forecast
Issued by NWS Albany, NY

Home | Current Version | Previous Version | Text Only | Print | Product List | Glossary On
Versions: 1 2 3 4 5 6 7 8 9 10 11 12 13 14 15 16 17 18 19 20 21 22 23 24 25 26 27
000
FTUS41 KALY 012300
TAFPOU
TAF
KPOU 012338Z 0200/0224 01004KT P6SM SCT025 OVC035
      TEMPO 0200/0204 5SM -SHRA BR BKN025 OVC035
     FM020400 VRB03KT 6SM BR OVC025
     FM020600 VRB03KT 4SM BR OVC015
     FM021500 36005KT P6SM OVC025
     FM022000 03005KT P6SM SCT025 OVC050=

USA.gov is the U.S. government's official web portal to all federal, state and local government web resources and services.